createdAt,value
2022-11-20T00:01:40.502Z,47.30
2022-11-20T00:04:09.752Z,47.00
2022-11-20T00:06:37.436Z,49.60
2022-11-20T00:09:06.347Z,52.40
2022-11-20T00:11:33.926Z,49.00
2022-11-20T00:14:03.106Z,48.30
2022-11-20T00:16:32.897Z,57.20
2022-11-20T00:19:00.694Z,49.40
2022-11-20T00:21:29.509Z,49.00
2022-11-20T00:23:58.111Z,53.20
2022-11-20T00:26:27.373Z,50.20
2022-11-20T00:28:57.242Z,55.20
2022-11-20T00:31:25.450Z,50.50
2022-11-20T00:33:53.591Z,58.50
2022-11-20T00:36:24.024Z,52.90
2022-11-20T00:38:56.423Z,61.00
2022-11-20T00:41:25.351Z,52.50
2022-11-20T00:43:54.383Z,53.30
2022-11-20T00:46:24.559Z,53.50
2022-11-20T00:48:52.478Z,53.40
2022-11-20T00:51:22.409Z,56.70
2022-11-20T00:53:50.421Z,53.00
2022-11-20T00:56:19.971Z,51.50
2022-11-20T00:58:49.415Z,51.00
2022-11-20T01:01:19.919Z,66.20
2022-11-20T01:03:49.451Z,54.60
2022-11-20T01:06:19.883Z,52.80
2022-11-20T01:08:48.445Z,51.60
2022-11-20T01:11:18.986Z,54.10
2022-11-20T01:13:48.058Z,51.10
2022-11-20T01:16:39.789Z,53.70
2022-11-20T01:19:12.198Z,52.80
2022-11-20T01:21:44.154Z,51.80
2022-11-20T01:24:14.361Z,50.90
2022-11-20T01:26:43.719Z,52.00
2022-11-20T01:29:16.999Z,50.90
2022-11-20T01:31:45.492Z,52.40
2022-11-20T01:34:15.071Z,54.30
2022-11-20T01:36:44.050Z,50.70
2022-11-20T01:39:15.076Z,52.70
2022-11-20T01:42:08.382Z,53.30
2022-11-20T01:44:49.355Z,54.30
2022-11-20T01:47:39.035Z,53.20
2022-11-20T01:50:23.219Z,52.10
2022-11-20T01:52:59.082Z,55.50
2022-11-20T01:55:30.922Z,59.40
2022-11-20T01:57:58.812Z,54.90
2022-11-20T02:00:26.826Z,56.20
2022-11-20T02:03:04.888Z,56.00
2022-11-20T02:05:53.131Z,58.80
2022-11-20T02:08:21.009Z,57.10
2022-11-20T02:10:48.709Z,56.50
2022-11-20T02:13:35.450Z,56.60
2022-11-20T02:16:03.889Z,57.40
2022-11-20T02:18:31.617Z,53.20
2022-11-20T02:21:08.358Z,53.30
2022-11-20T02:23:40.447Z,53.90
2022-11-20T02:26:10.462Z,55.90
2022-11-20T02:28:38.475Z,54.40
2022-11-20T02:31:06.295Z,54.40
2022-11-20T02:33:33.886Z,52.90
2022-11-20T02:36:01.646Z,54.10
2022-11-20T02:38:29.247Z,54.10
2022-11-20T02:40:56.853Z,53.30
2022-11-20T02:43:24.485Z,54.00
2022-11-20T02:45:52.135Z,52.60
2022-11-20T02:48:19.725Z,53.40
2022-11-20T02:50:47.383Z,53.00
2022-11-20T02:53:15.087Z,53.10
2022-11-20T02:55:42.683Z,51.70
2022-11-20T02:58:10.302Z,52.90
2022-11-20T03:00:37.892Z,52.00
2022-11-20T03:03:05.484Z,53.40
2022-11-20T03:05:33.211Z,52.00
2022-11-20T03:08:00.760Z,50.30
2022-11-20T03:10:28.384Z,51.00
2022-11-20T03:12:56.560Z,50.40
2022-11-20T03:15:24.619Z,51.00
2022-11-20T03:17:56.527Z,51.60
2022-11-20T03:20:24.391Z,49.10
2022-11-20T03:22:51.991Z,49.60
2022-11-20T03:25:19.552Z,49.20
2022-11-20T03:27:47.160Z,51.00
2022-11-20T03:30:15.676Z,50.30
2022-11-20T03:32:43.297Z,52.10
2022-11-20T03:35:11.078Z,51.00
2022-11-20T03:37:38.678Z,50.40
2022-11-20T03:40:07.115Z,51.90
2022-11-20T03:42:46.749Z,51.90
2022-11-20T03:45:15.892Z,51.60
2022-11-20T03:47:44.456Z,51.30
2022-11-20T03:50:14.099Z,52.30
2022-11-20T03:52:42.434Z,53.50
2022-11-20T03:55:10.408Z,52.50
2022-11-20T03:57:38.075Z,53.50
2022-11-20T04:00:06.699Z,55.70
2022-11-20T04:02:34.271Z,51.60
2022-11-20T04:05:01.868Z,63.20
2022-11-20T04:07:29.618Z,56.60
2022-11-20T04:09:57.376Z,57.60
2022-11-20T04:12:25.075Z,53.60
2022-11-20T04:14:52.671Z,55.10
2022-11-20T04:17:20.247Z,59.80
2022-11-20T04:19:47.828Z,65.00
2022-11-20T04:22:15.454Z,56.30
2022-11-20T04:24:43.019Z,61.50
2022-11-20T04:27:10.592Z,55.60
2022-11-20T04:29:38.157Z,56.10
2022-11-20T04:32:05.849Z,58.20
2022-11-20T04:34:33.551Z,60.60
2022-11-20T04:37:01.951Z,61.40
2022-11-20T04:39:29.550Z,60.40
2022-11-20T04:42:15.983Z,66.90
2022-11-20T04:44:43.552Z,59.50
2022-11-20T04:47:11.148Z,56.00
2022-11-20T04:49:38.750Z,58.60
2022-11-20T04:52:06.515Z,59.00
2022-11-20T04:54:34.082Z,61.80
2022-11-20T04:57:01.651Z,61.70
2022-11-20T04:59:29.238Z,66.50
2022-11-20T05:01:57.071Z,58.50
2022-11-20T05:04:24.898Z,65.40
2022-11-20T05:06:52.501Z,63.60
2022-11-20T05:09:20.265Z,64.90
2022-11-20T05:11:51.439Z,64.20
2022-11-20T05:14:19.489Z,68.10
2022-11-20T05:16:47.333Z,67.50
2022-11-20T05:19:15.037Z,61.90
2022-11-20T05:21:42.650Z,63.30
2022-11-20T05:24:10.416Z,62.60
2022-11-20T05:26:38.043Z,78.10
2022-11-20T05:29:05.756Z,67.40
2022-11-20T05:31:33.526Z,65.00
2022-11-20T05:34:01.187Z,68.90
2022-11-20T05:36:28.789Z,62.40
2022-11-20T05:39:01.273Z,63.40
2022-11-20T05:41:30.715Z,64.50
2022-11-20T05:43:59.388Z,64.00
2022-11-20T05:46:29.269Z,67.30
2022-11-20T05:48:58.951Z,63.20
2022-11-20T05:51:26.839Z,63.60
2022-11-20T05:53:56.947Z,63.90
2022-11-20T05:56:24.550Z,62.70
2022-11-20T05:58:52.169Z,62.70
2022-11-20T06:01:22.545Z,65.10
2022-11-20T06:03:51.654Z,62.50
2022-11-20T06:06:20.826Z,63.60
2022-11-20T06:08:48.973Z,62.00
2022-11-20T06:11:17.721Z,64.40
2022-11-20T06:13:46.533Z,63.40
2022-11-20T06:16:16.914Z,64.70
2022-11-20T06:18:44.505Z,64.00
2022-11-20T06:21:18.074Z,65.80
2022-11-20T06:23:46.409Z,65.20
2022-11-20T06:26:16.724Z,63.80
2022-11-20T06:28:44.666Z,65.20
2022-11-20T06:31:14.514Z,64.00
2022-11-20T06:33:42.745Z,65.10
2022-11-20T06:36:12.286Z,64.90
2022-11-20T06:38:40.365Z,65.40
2022-11-20T06:41:12.091Z,65.60
2022-11-20T06:43:39.934Z,65.90
2022-11-20T06:46:07.811Z,67.10
2022-11-20T06:48:35.384Z,68.60
2022-11-20T06:51:07.366Z,66.60
2022-11-20T06:53:35.737Z,67.40
2022-11-20T06:56:03.857Z,69.50
2022-11-20T06:58:34.061Z,66.50
2022-11-20T07:01:03.716Z,65.10
2022-11-20T07:03:31.800Z,67.10
2022-11-20T07:06:01.132Z,65.40
2022-11-20T07:08:29.135Z,64.90
2022-11-20T07:11:01.181Z,61.60
2022-11-20T07:13:29.604Z,62.50
2022-11-20T07:16:01.058Z,60.90
2022-11-20T07:18:28.714Z,61.10
2022-11-20T07:20:56.692Z,60.10
2022-11-20T07:23:24.322Z,59.40
2022-11-20T07:25:51.924Z,58.50
2022-11-20T07:28:19.535Z,60.00
2022-11-20T07:30:53.888Z,58.10
2022-11-20T07:33:22.042Z,58.00
2022-11-20T07:35:49.740Z,56.80
2022-11-20T07:38:17.346Z,54.70
2022-11-20T07:40:45.118Z,52.80
2022-11-20T07:43:12.752Z,51.80
2022-11-20T07:45:40.822Z,50.40
2022-11-20T07:48:08.410Z,47.80
2022-11-20T07:50:35.970Z,49.70
2022-11-20T07:53:05.335Z,48.70
2022-11-20T07:55:33.280Z,48.50
2022-11-20T07:58:00.923Z,47.10
2022-11-20T08:00:28.626Z,48.50
2022-11-20T08:02:56.444Z,47.80
2022-11-20T08:05:24.326Z,56.00
2022-11-20T08:07:51.910Z,48.20
2022-11-20T08:10:19.744Z,56.00
2022-11-20T08:13:08.038Z,61.10
2022-11-20T08:15:36.435Z,45.80
2022-11-20T08:21:04.459Z,52.20
2022-11-20T08:23:32.157Z,50.90
2022-11-20T08:25:59.775Z,49.50
2022-11-20T08:28:27.361Z,41.70
2022-11-20T08:30:59.758Z,40.80
2022-11-20T08:33:27.408Z,42.40
2022-11-20T08:36:00.031Z,43.00
2022-11-20T08:38:27.642Z,44.00
2022-11-20T08:41:21.008Z,44.00
2022-11-20T08:43:48.619Z,40.30
2022-11-20T08:46:16.225Z,39.30
2022-11-20T08:48:44.539Z,39.20
2022-11-20T08:51:12.920Z,41.10
2022-11-20T08:53:40.806Z,42.20
2022-11-20T08:56:10.451Z,39.60
2022-11-20T08:59:01.931Z,40.50
2022-11-20T09:01:27.523Z,39.00
2022-11-20T09:03:58.716Z,40.30
2022-11-20T09:06:26.758Z,39.80
2022-11-20T09:08:54.809Z,38.00
2022-11-20T09:11:22.829Z,36.70
2022-11-20T09:13:50.555Z,38.10
2022-11-20T09:16:18.204Z,34.30
2022-11-20T09:18:45.823Z,36.50
2022-11-20T09:21:14.891Z,39.40
2022-11-20T09:23:42.568Z,37.50
2022-11-20T09:26:11.864Z,39.30
2022-11-20T09:28:39.982Z,37.80
2022-11-20T09:31:22.870Z,37.30
2022-11-20T09:33:50.977Z,36.90
2022-11-20T09:36:19.670Z,36.90
2022-11-20T09:38:47.705Z,36.20
2022-11-20T09:41:18.434Z,35.70
2022-11-20T09:43:51.656Z,34.90
2022-11-20T09:46:38.073Z,30.90
2022-11-20T09:49:30.690Z,30.80
2022-11-20T09:52:27.888Z,30.70
2022-11-20T09:54:56.036Z,32.80
2022-11-20T09:57:36.741Z,33.40
2022-11-20T10:00:06.662Z,33.30
2022-11-20T10:02:53.808Z,32.70
2022-11-20T10:05:26.122Z,32.50
2022-11-20T10:08:10.724Z,33.50
2022-11-20T10:10:53.594Z,33.90
2022-11-20T10:13:47.571Z,32.40
2022-11-20T10:16:44.376Z,30.60
2022-11-20T10:19:33.741Z,27.00
2022-11-20T10:22:16.788Z,27.90
2022-11-20T10:25:05.637Z,27.50
2022-11-20T10:28:11.360Z,31.50
2022-11-20T10:30:42.817Z,33.00
2022-11-20T10:33:17.420Z,31.40
2022-11-20T10:36:22.349Z,30.50
2022-11-20T10:38:55.229Z,28.10
2022-11-20T10:41:30.870Z,28.80
2022-11-20T10:44:42.402Z,29.00
2022-11-20T10:47:15.170Z,29.50
2022-11-20T10:49:44.652Z,32.80
2022-11-20T10:52:17.375Z,30.80
2022-11-20T10:55:11.334Z,31.00
2022-11-20T10:57:53.622Z,31.10
2022-11-20T11:00:21.221Z,31.70
2022-11-20T11:02:54.188Z,35.00
2022-11-20T11:05:41.152Z,35.20
2022-11-20T11:08:15.460Z,33.70
2022-11-20T11:10:49.075Z,32.10
2022-11-20T11:13:28.300Z,31.40
2022-11-20T11:15:56.470Z,30.80
2022-11-20T11:18:32.669Z,31.00
2022-11-20T11:21:03.050Z,32.50
2022-11-20T11:23:35.353Z,37.60
2022-11-20T11:26:05.776Z,41.90
2022-11-20T11:28:34.271Z,43.30
2022-11-20T11:31:02.017Z,43.10
2022-11-20T11:33:32.514Z,46.10
2022-11-20T11:36:19.252Z,46.10
2022-11-20T11:38:46.859Z,46.00
2022-11-20T11:41:19.067Z,45.20
2022-11-20T11:44:17.460Z,46.60
2022-11-20T11:46:51.158Z,41.90
2022-11-20T11:49:20.368Z,39.90
2022-11-20T11:52:02.278Z,43.00
2022-11-20T11:54:52.538Z,43.40
2022-11-20T11:57:52.963Z,38.20
2022-11-20T12:00:22.139Z,37.60
2022-11-20T12:02:58.583Z,39.70
2022-11-20T12:05:44.231Z,42.30
2022-11-20T12:08:25.468Z,41.80
2022-11-20T12:11:07.706Z,40.10
2022-11-20T12:13:35.240Z,38.40
2022-11-20T12:16:04.207Z,35.20
2022-11-20T12:18:32.647Z,34.70
2022-11-20T12:21:21.397Z,32.50
2022-11-20T12:24:02.850Z,34.00
2022-11-20T12:26:45.823Z,33.20
2022-11-20T12:29:46.053Z,34.90
2022-11-20T12:32:16.416Z,31.10
2022-11-20T12:35:11.283Z,28.90
2022-11-20T12:37:51.120Z,27.80
2022-11-20T12:40:25.268Z,29.40
2022-11-20T12:43:36.496Z,33.40
2022-11-20T12:46:42.153Z,36.00
2022-11-20T12:49:31.297Z,35.30
2022-11-20T12:52:05.936Z,37.10
2022-11-20T12:54:57.863Z,41.90
2022-11-20T12:57:51.095Z,39.60
2022-11-20T13:00:23.424Z,41.60
2022-11-20T13:03:00.398Z,45.40
2022-11-20T13:05:52.487Z,46.30
2022-11-20T13:08:26.607Z,46.00
2022-11-20T13:11:20.010Z,46.70
2022-11-20T13:14:12.517Z,47.10
2022-11-20T13:16:51.352Z,46.70
2022-11-20T13:19:19.316Z,45.80
2022-11-20T13:21:52.450Z,45.80
2022-11-20T13:24:20.464Z,44.70
2022-11-20T13:26:48.355Z,43.40
2022-11-20T13:29:20.082Z,42.30
2022-11-20T13:31:49.133Z,44.30
2022-11-20T13:34:26.861Z,43.20
2022-11-20T13:36:57.459Z,46.80
2022-11-20T13:39:29.710Z,46.00
2022-11-20T13:42:21.834Z,47.40
2022-11-20T13:44:55.128Z,48.00
2022-11-20T13:47:28.003Z,47.90
2022-11-20T13:50:00.424Z,50.50
2022-11-20T13:53:10.600Z,48.60
2022-11-20T13:55:52.973Z,49.80
2022-11-20T13:58:52.530Z,51.20
2022-11-20T14:01:25.317Z,52.40
2022-11-20T14:04:09.356Z,52.90
2022-11-20T14:06:45.208Z,52.50
2022-11-20T14:09:14.836Z,52.50
2022-11-20T14:11:48.906Z,59.50
2022-11-20T14:14:22.234Z,54.80
2022-11-20T14:16:51.033Z,53.70
2022-11-20T14:19:21.458Z,58.40
2022-11-20T14:21:54.596Z,56.20
2022-11-20T14:24:24.969Z,57.60
2022-11-20T14:26:53.390Z,55.00
2022-11-20T14:29:24.903Z,59.80
2022-11-20T14:31:54.508Z,54.70
2022-11-20T14:34:26.665Z,55.20
2022-11-20T14:37:00.048Z,54.40
2022-11-20T14:39:33.021Z,53.60
2022-11-20T14:42:00.902Z,53.60
2022-11-20T14:44:33.299Z,59.00
2022-11-20T14:47:03.044Z,55.30
2022-11-20T14:49:32.168Z,58.80
2022-11-20T14:52:11.658Z,58.20
2022-11-20T14:54:50.646Z,57.40
2022-11-20T14:57:24.546Z,58.10
2022-11-20T14:59:52.833Z,59.00
2022-11-20T15:02:20.466Z,64.20
2022-11-20T15:04:58.239Z,62.80
2022-11-20T15:07:31.743Z,60.70
2022-11-20T15:10:19.396Z,72.60
2022-11-20T15:12:52.749Z,66.10
2022-11-20T15:15:31.219Z,84.30
2022-11-20T15:17:59.407Z,68.30
2022-11-20T15:20:30.568Z,71.70
2022-11-20T15:22:58.235Z,64.70
2022-11-20T15:25:26.251Z,65.20
2022-11-20T15:27:57.043Z,69.00
2022-11-20T15:30:25.026Z,65.50
2022-11-20T15:32:52.814Z,67.90
2022-11-20T15:35:20.521Z,68.90
2022-11-20T15:37:48.108Z,71.60
2022-11-20T15:40:15.810Z,73.30
2022-11-20T15:43:06.797Z,72.80
2022-11-20T15:45:44.715Z,79.60
2022-11-20T15:48:15.407Z,85.80
2022-11-20T15:50:52.354Z,86.40
2022-11-20T15:53:20.044Z,82.30
2022-11-20T15:55:47.699Z,88.00
2022-11-20T15:58:15.672Z,82.70
2022-11-20T16:00:43.803Z,88.00
2022-11-20T16:03:15.581Z,85.00
2022-11-20T16:05:43.367Z,78.90
2022-11-20T16:08:11.937Z,77.10
2022-11-20T16:10:40.818Z,76.40
2022-11-20T16:13:32.861Z,76.50
2022-11-20T16:16:05.834Z,75.90
2022-11-20T16:18:34.106Z,76.50
2022-11-20T16:21:02.088Z,71.60
2022-11-20T16:23:29.842Z,74.80
2022-11-20T16:25:57.400Z,110.20
2022-11-20T16:28:25.635Z,77.20
2022-11-20T16:30:53.222Z,78.00
2022-11-20T16:33:20.795Z,74.70
2022-11-20T16:35:48.618Z,71.20
2022-11-20T16:38:16.224Z,69.50
2022-11-20T16:40:43.825Z,71.30
2022-11-20T16:43:12.284Z,70.20
2022-11-20T16:45:43.973Z,70.80
2022-11-20T16:48:16.180Z,74.30
2022-11-20T16:50:49.692Z,75.30
2022-11-20T16:53:18.936Z,74.20
2022-11-20T16:55:47.222Z,77.40
2022-11-20T16:58:15.796Z,75.00
2022-11-20T17:00:48.353Z,75.30
2022-11-20T17:03:17.711Z,77.80
2022-11-20T17:05:45.282Z,83.70
2022-11-20T17:08:12.912Z,80.00
2022-11-20T17:10:40.620Z,79.90
2022-11-20T17:13:08.206Z,84.00
2022-11-20T17:15:35.773Z,77.00
2022-11-20T17:18:03.567Z,74.60
2022-11-20T17:20:32.506Z,78.30
2022-11-20T17:23:00.114Z,79.00
2022-11-20T17:25:27.692Z,78.40
2022-11-20T17:27:55.625Z,83.70
2022-11-20T17:30:23.277Z,80.60
2022-11-20T17:32:50.884Z,78.50
2022-11-20T17:35:18.477Z,77.90
2022-11-20T17:37:46.059Z,76.80
2022-11-20T17:40:13.726Z,74.00
2022-11-20T17:42:41.636Z,74.00
2022-11-20T17:45:09.280Z,76.10
2022-11-20T17:47:39.534Z,74.60
2022-11-20T17:50:07.723Z,74.20
2022-11-20T17:52:35.639Z,75.70
2022-11-20T17:55:03.356Z,74.50
2022-11-20T17:57:49.647Z,75.80
2022-11-20T18:00:18.183Z,73.80
2022-11-20T18:02:46.064Z,72.20
2022-11-20T18:05:13.788Z,73.70
2022-11-20T18:07:42.117Z,96.90
2022-11-20T18:10:10.329Z,79.80
2022-11-20T18:12:38.011Z,86.00
2022-11-20T18:15:05.879Z,84.80
2022-11-20T18:17:33.890Z,85.10
2022-11-20T18:20:27.159Z,82.20
2022-11-20T18:22:49.098Z,97.70
2022-11-20T18:25:16.828Z,83.50
2022-11-20T18:27:45.243Z,97.20
2022-11-20T18:30:13.565Z,96.10
2022-11-20T18:32:41.213Z,101.40
2022-11-20T18:35:09.315Z,94.30
2022-11-20T18:37:36.942Z,87.50
2022-11-20T18:40:04.894Z,98.00
2022-11-20T18:42:51.102Z,96.50
2022-11-20T18:45:18.669Z,106.30
2022-11-20T18:47:46.284Z,88.60
2022-11-20T18:50:13.852Z,88.30
2022-11-20T18:52:44.527Z,90.30
2022-11-20T18:55:12.923Z,93.00
2022-11-20T18:57:40.970Z,91.50
2022-11-20T19:00:10.110Z,90.60
2022-11-20T19:02:42.033Z,90.20
2022-11-20T19:05:12.617Z,92.90
2022-11-20T19:07:40.930Z,96.10
2022-11-20T19:13:28.667Z,103.10
2022-11-20T19:16:03.411Z,105.20
2022-11-20T19:18:32.182Z,98.50
2022-11-20T19:21:15.318Z,89.80
2022-11-20T19:23:43.576Z,85.30
2022-11-20T19:26:11.200Z,93.00
2022-11-20T19:28:39.553Z,90.50
2022-11-20T19:31:10.226Z,96.00
2022-11-20T19:33:38.465Z,109.90
2022-11-20T19:36:15.587Z,95.30
2022-11-20T19:38:49.831Z,93.60
2022-11-20T19:41:20.138Z,91.20
2022-11-20T19:43:49.910Z,106.10
2022-11-20T19:46:18.791Z,97.30
2022-11-20T19:48:46.813Z,109.80
2022-11-20T19:51:16.958Z,108.10
2022-11-20T19:53:44.731Z,100.10
2022-11-20T19:56:12.446Z,100.30
2022-11-20T19:58:40.397Z,111.90
2022-11-20T20:01:11.844Z,103.40
2022-11-20T20:03:40.088Z,100.90
2022-11-20T20:06:10.567Z,96.30
2022-11-20T20:08:38.157Z,89.60
2022-11-20T20:11:17.908Z,91.60
2022-11-20T20:13:47.256Z,88.90
2022-11-20T20:16:17.679Z,90.30
2022-11-20T20:18:45.623Z,97.90
2022-11-20T20:21:15.458Z,90.40
2022-11-20T20:23:44.098Z,96.10
2022-11-20T20:26:12.421Z,98.00
2022-11-20T20:28:40.263Z,87.70
2022-11-20T20:31:10.126Z,88.30
2022-11-20T20:33:39.507Z,86.00
2022-11-20T20:36:09.004Z,85.20
2022-11-20T20:38:36.580Z,90.70
2022-11-20T20:41:04.659Z,87.20
2022-11-20T20:43:52.240Z,91.00
2022-11-20T20:46:20.563Z,90.10
2022-11-20T20:48:54.042Z,89.80
2022-11-20T20:51:23.127Z,87.60
2022-11-20T20:53:51.084Z,88.70
2022-11-20T20:56:18.739Z,94.50
2022-11-20T20:58:46.358Z,89.00
2022-11-20T21:01:15.748Z,103.30
2022-11-20T21:03:43.483Z,87.90
2022-11-20T21:06:11.769Z,90.60
2022-11-20T21:08:41.132Z,93.30
2022-11-20T21:11:12.483Z,88.00
2022-11-20T21:13:42.779Z,88.50
2022-11-20T21:16:11.882Z,89.90
2022-11-20T21:18:39.484Z,89.10
2022-11-20T21:21:27.495Z,85.90
2022-11-20T21:23:55.159Z,87.80
2022-11-20T21:26:22.839Z,92.20
2022-11-20T21:28:50.557Z,89.30
2022-11-20T21:31:22.119Z,94.10
2022-11-20T21:33:51.115Z,89.10
2022-11-20T21:36:20.692Z,101.40
2022-11-20T21:38:49.080Z,116.50
2022-11-20T21:41:16.719Z,107.50
2022-11-20T21:43:44.467Z,102.30
2022-11-20T21:46:14.159Z,111.00
2022-11-20T21:48:43.155Z,100.40
2022-11-20T21:51:13.118Z,92.90
2022-11-20T21:53:41.270Z,94.20
2022-11-20T21:56:10.407Z,93.20
2022-11-20T21:58:39.204Z,94.90
2022-11-20T22:01:15.987Z,92.10
2022-11-20T22:03:47.067Z,97.50
2022-11-20T22:06:14.763Z,99.60
2022-11-20T22:08:42.775Z,96.30
2022-11-20T22:11:14.748Z,94.80
2022-11-20T22:14:01.390Z,91.20
2022-11-20T22:16:29.291Z,87.20
2022-11-20T22:18:57.740Z,86.20
2022-11-20T22:21:27.397Z,82.80
2022-11-20T22:23:55.615Z,83.60
2022-11-20T22:26:25.441Z,80.80
2022-11-20T22:28:55.039Z,84.10
2022-11-20T22:31:24.903Z,81.30
2022-11-20T22:33:52.618Z,82.00
2022-11-20T22:36:22.220Z,79.40
2022-11-20T22:38:50.032Z,81.00
2022-11-20T22:41:22.755Z,84.70
2022-11-20T22:43:56.555Z,79.60
2022-11-20T22:46:25.343Z,80.90
2022-11-20T22:48:54.997Z,81.60
2022-11-20T22:51:25.247Z,83.80
2022-11-20T22:53:53.288Z,82.30
2022-11-20T22:56:21.735Z,82.90
2022-11-20T22:58:51.913Z,82.30
2022-11-20T23:01:22.032Z,84.90
2022-11-20T23:03:51.292Z,85.10
2022-11-20T23:06:20.042Z,82.90
2022-11-20T23:08:48.418Z,84.10
2022-11-20T23:11:18.467Z,84.80
2022-11-20T23:13:46.556Z,85.40
2022-11-20T23:16:16.745Z,83.20
2022-11-20T23:18:44.613Z,84.40
2022-11-20T23:21:17.914Z,83.90
2022-11-20T23:23:49.984Z,82.80
2022-11-20T23:26:19.665Z,80.70
2022-11-20T23:28:47.685Z,78.50
2022-11-20T23:31:16.190Z,80.30
2022-11-20T23:33:45.770Z,75.60
2022-11-20T23:36:13.815Z,79.30
2022-11-20T23:38:41.798Z,74.50
2022-11-20T23:41:09.432Z,76.10
2022-11-20T23:43:37.168Z,75.20
2022-11-20T23:46:05.761Z,75.30
2022-11-20T23:48:35.890Z,76.70
2022-11-20T23:51:04.959Z,76.80
2022-11-20T23:53:32.935Z,79.10
2022-11-20T23:56:02.554Z,81.60
2022-11-20T23:58:32.827Z,81.20
